Aeroporto :
LOGIN :

Iscrizione | Disclaimer

   EN    FR    IT 

 










Sommario :    VFR   VFR Marginale   IFR   IFR Intensivo   IFR Molto Intensivo
Visibilità : 
Base nubi : 
>= 8 km
>= 3000ft
5 / 8 km
1000 / 3000 ft
1500m / 5 km
500 / 1000 ft
800 / 1500m
200 / 500 ft
< 800m
< 200 ft
Simboli :   Temporali  Nebbia  Neve Forte  Precipitazioni Forti  Vento > 20 kt
SIGMETs :   Varie  Temporali  Ghiacco  Turbolenza  Onda orograficha  Ceneri Vulcaniche






- Altitudine del aeroporto : 135 ft
- Codice IATA : EDI


EGPH - Edinburgh

ULTIMO METAR :
  • 200450Z 23014KT 9999 -RA FEW017 SCT026 BKN043 08/07 Q0992 RERA

METARs OBSOLETI :
  • 200420Z 23014KT 9999 RA FEW011 BKN018 BKN033 09/07 Q0993
  • 200350Z 22013KT 9999 -RA BKN025 BKN041 10/08 Q0993
  • 200320Z 21018KT 9999 -RA SCT023 OVC039 10/08 Q0994
  • 200250Z 20021KT 9999 -RA BKN044 10/08 Q0994
  • 200220Z 22019KT 9999 -RA FEW022 BKN040 10/08 Q0994

TAF AMD TAF EGPH
Valido dal 20 a 04 ore il 21 a 00 ore UTC


200413Z 2004/2024 24009KT 9999 FEW014 SCT022
TEMPO 2004/2011 6000 RA BKN012
PROB40
TEMPO 2004/2008 4000 RADZ +RA
PROB30
TEMPO 2006/2011 BKN007
BECMG 2011/2014 26019KT
PROB40
TEMPO 2012/2024 26022G32KT 5000 SHRASN SHRAGS BKN014CB
ATIS : +44 131 339 2823



MetMap, La meteo Aeronautica in un colpo d'occhio ! - Copyright ORBIFLY Dicembre 2007 - Disclaimer

ORBIFLY MET'MAP TEAM :

Programmazione e sviluppo : Alexandra Zaïnal
Concezione : Baudouin d'Aumeries
Aiuto per la programmazione : Marc-Olivier Méhu
Supporto tecnico e logistico : Manuel Goepfert
Aiuto per la traduzione : Arnaldo La Scala

Contatto : metmap@orbifly.com




FONTI E CREDITI :

   NOAA